Time;durP1;ratioP1;P1;durP2;ratioP2;P2;SDS_P1;SDS_P2;PMS_P1;PMS_P2;Temp;Humidity;BMP_temperature;BMP_pressure;BME280_temperature;BME280_humidity;BME280_pressure;Samples;Min_cycle;Max_cycle;Signal;HPM_P1;HPM_P2
2022/04/15 00:01:26;;;;;;;20.15;10.20;;;;;;;12.63;100.00;101993.88;5067336;28;20147;-74
2022/04/15 00:03:53;;;;;;;23.58;10.20;;;;;;;12.63;100.00;101998.66;5068096;28;20080;-74
2022/04/15 00:06:21;;;;;;;24.55;9.52;;;;;;;12.55;100.00;101983.91;5065356;28;20076;-74
2022/04/15 00:08:47;;;;;;;23.27;10.77;;;;;;;12.56;100.00;101996.59;5071080;28;20049;-75
2022/04/15 00:11:14;;;;;;;21.40;9.32;;;;;;;12.57;100.00;101989.06;5060634;28;20057;-74
2022/04/15 00:13:41;;;;;;;23.15;10.27;;;;;;;12.54;100.00;102001.75;5053124;28;20093;-75
2022/04/15 00:16:08;;;;;;;25.40;10.98;;;;;;;12.48;100.00;102000.47;5063223;28;20052;-73
2022/04/15 00:18:37;;;;;;;20.50;10.27;;;;;;;12.44;100.00;101996.88;5065117;28;20070;-77
2022/04/15 00:21:04;;;;;;;23.67;11.90;;;;;;;12.44;100.00;101998.84;5066115;28;20159;-77
2022/04/15 00:23:31;;;;;;;20.73;10.00;;;;;;;12.43;100.00;102000.03;5065419;28;20075;-75
2022/04/15 00:25:58;;;;;;;25.08;9.98;;;;;;;12.39;100.00;102002.75;5066418;28;20102;-75
2022/04/15 00:28:24;;;;;;;23.02;11.05;;;;;;;12.38;100.00;101994.78;5064740;28;20044;-74
2022/04/15 00:30:51;;;;;;;24.80;10.50;;;;;;;12.36;100.00;102005.50;5060784;28;20057;-74
2022/04/15 00:33:18;;;;;;;23.70;11.02;;;;;;;12.31;100.00;102001.06;5060354;28;20060;-74
2022/04/15 00:35:45;;;;;;;23.15;10.75;;;;;;;12.29;100.00;101994.31;5051347;28;20091;-74
2022/04/15 00:38:11;;;;;;;23.42;11.68;;;;;;;12.28;100.00;102001.00;5068785;28;20175;-74
2022/04/15 00:40:38;;;;;;;20.63;10.00;;;;;;;12.18;100.00;101994.16;5063572;28;20143;-74
2022/04/15 00:43:04;;;;;;;19.00;10.15;;;;;;;12.16;100.00;101993.75;5059881;28;20052;-73
2022/04/15 00:45:32;;;;;;;22.75;10.60;;;;;;;12.12;100.00;102004.00;5059368;28;20044;-74
2022/04/15 00:48:00;;;;;;;20.27;10.32;;;;;;;12.12;100.00;102000.44;5068100;28;20052;-72
2022/04/15 00:50:29;;;;;;;21.20;9.98;;;;;;;12.09;100.00;101996.41;5064605;28;20226;-73
2022/04/15 00:53:07;;;;;;;20.40;9.60;;;;;;;12.07;100.00;102003.53;5064123;28;20053;-73
2022/04/15 00:55:34;;;;;;;19.67;10.35;;;;;;;12.03;100.00;101999.91;5066902;28;20129;-73
2022/04/15 00:58:02;;;;;;;20.67;9.77;;;;;;;11.99;100.00;102001.84;5064915;28;20102;-73
2022/04/15 01:00:32;;;;;;;20.92;9.38;;;;;;;11.96;100.00;102006.19;5059477;28;20417;-72
2022/04/15 01:03:01;;;;;;;20.30;10.25;;;;;;;11.89;100.00;102006.06;5048096;28;20052;-75
2022/04/15 01:05:28;;;;;;;24.63;10.95;;;;;;;11.85;100.00;102004.44;5066771;28;20052;-73
2022/04/15 01:07:56;;;;;;;21.63;10.93;;;;;;;11.81;100.00;102012.69;5069397;28;20167;-74
2022/04/15 01:10:25;;;;;;;23.52;10.63;;;;;;;11.78;100.00;102015.41;5057218;28;20049;-73
2022/04/15 01:12:54;;;;;;;23.80;10.95;;;;;;;11.79;100.00;102011.47;5064526;28;20505;-73
2022/04/15 01:15:41;;;;;;;26.30;11.90;;;;;;;11.72;100.00;102017.72;5066272;28;20052;-75
2022/04/15 01:18:07;;;;;;;23.73;10.50;;;;;;;11.69;100.00;102012.91;5058518;28;20135;-73
2022/04/15 01:20:34;;;;;;;23.48;10.50;;;;;;;11.67;100.00;102020.78;5062512;28;20063;-75
2022/04/15 01:23:07;;;;;;;23.30;11.52;;;;;;;11.60;100.00;102014.31;5067168;28;20095;-75
2022/04/15 01:25:34;;;;;;;19.98;10.50;;;;;;;11.57;100.00;102017.81;5055159;28;20099;-73
2022/04/15 01:28:01;;;;;;;21.42;10.15;;;;;;;11.52;100.00;102024.50;5059390;28;20051;-73
2022/04/15 01:30:27;;;;;;;22.52;10.85;;;;;;;11.44;100.00;102016.44;5065416;28;20128;-74
2022/04/15 01:32:54;;;;;;;24.23;11.70;;;;;;;11.42;100.00;102018.78;5059423;28;20143;-74
2022/04/15 01:35:23;;;;;;;24.60;11.60;;;;;;;11.40;100.00;102026.66;5061000;28;20120;-73
2022/04/15 01:37:50;;;;;;;22.20;11.32;;;;;;;11.38;100.00;102031.78;5058688;28;20506;-75
2022/04/15 01:40:18;;;;;;;23.58;11.23;;;;;;;11.35;100.00;102024.22;5066352;28;20058;-72
2022/04/15 01:42:47;;;;;;;22.50;11.02;;;;;;;11.33;100.00;102038.44;5060099;28;20499;-73
2022/04/15 01:45:14;;;;;;;23.52;11.13;;;;;;;11.27;100.00;102026.06;5064601;28;20131;-74
2022/04/15 01:47:41;;;;;;;22.77;11.32;;;;;;;11.26;100.00;102037.50;5067521;28;20062;-74
2022/04/15 01:50:09;;;;;;;27.92;12.32;;;;;;;11.22;100.00;102036.66;5057070;28;20132;-73
2022/04/15 01:52:35;;;;;;;22.75;10.68;;;;;;;11.22;100.00;102047.72;5060257;28;20052;-73
2022/04/15 01:55:02;;;;;;;24.58;11.75;;;;;;;11.18;100.00;102044.91;5055944;28;20132;-74
2022/04/15 01:57:29;;;;;;;22.63;10.55;;;;;;;11.11;100.00;102047.56;5065509;28;20127;-73
2022/04/15 01:59:56;;;;;;;23.13;11.23;;;;;;;11.14;100.00;102046.03;5071106;28;20070;-73
2022/04/15 02:02:22;;;;;;;21.73;10.70;;;;;;;11.11;100.00;102046.75;5068023;28;20399;-74
2022/04/15 02:04:49;;;;;;;21.13;10.55;;;;;;;11.10;100.00;102056.25;5069393;28;20055;-73
2022/04/15 02:07:15;;;;;;;21.75;10.98;;;;;;;11.08;100.00;102051.06;5071701;28;20070;-74
2022/04/15 02:09:42;;;;;;;20.95;10.27;;;;;;;11.06;100.00;102055.34;5070424;28;20048;-75
2022/04/15 02:12:09;;;;;;;20.58;10.25;;;;;;;11.03;100.00;102051.34;5068627;28;20171;-73
2022/04/15 02:14:35;;;;;;;22.42;10.48;;;;;;;11.04;100.00;102054.94;5061629;28;20059;-74
2022/04/15 02:17:02;;;;;;;22.85;10.60;;;;;;;11.01;100.00;102053.72;5050571;28;20493;-73
2022/04/15 02:19:29;;;;;;;23.35;10.90;;;;;;;10.99;100.00;102056.03;5050523;28;20056;-74
2022/04/15 02:21:55;;;;;;;22.27;11.25;;;;;;;10.98;100.00;102053.63;5050159;28;20059;-74
2022/04/15 02:24:22;;;;;;;21.70;9.48;;;;;;;10.94;100.00;102056.34;5063505;28;20040;-73
2022/04/15 02:26:48;;;;;;;24.13;10.05;;;;;;;10.92;100.00;102055.09;5066873;28;20071;-74
2022/04/15 02:29:15;;;;;;;22.65;11.23;;;;;;;10.89;100.00;102055.81;5069732;28;20428;-75
2022/04/15 02:31:42;;;;;;;21.23;10.40;;;;;;;10.87;100.00;102055.41;5069236;28;20083;-74
2022/04/15 02:34:09;;;;;;;24.15;10.75;;;;;;;10.81;100.00;102045.78;5067643;28;20060;-74
2022/04/15 02:36:36;;;;;;;23.63;10.85;;;;;;;10.84;100.00;102062.50;5070651;28;20056;-74
2022/04/15 02:39:04;;;;;;;24.95;10.43;;;;;;;10.80;100.00;102060.81;5070146;28;20052;-74
2022/04/15 02:41:31;;;;;;;27.33;11.02;;;;;;;10.78;100.00;102065.91;5085270;28;20136;-75
2022/04/15 02:43:57;;;;;;;21.23;10.45;;;;;;;10.72;100.00;102061.81;5068242;28;20128;-73
2022/04/15 02:46:25;;;;;;;21.63;10.55;;;;;;;10.64;100.00;102054.56;5060882;28;20053;-75
2022/04/15 02:48:51;;;;;;;26.98;11.65;;;;;;;10.65;100.00;102062.50;5050341;28;20079;-74
2022/04/15 02:51:18;;;;;;;21.55;10.65;;;;;;;10.61;100.00;102056.09;5048866;28;20511;-74
2022/04/15 02:53:44;;;;;;;24.00;11.60;;;;;;;10.61;100.00;102056.09;5069687;28;20055;-74
2022/04/15 02:56:11;;;;;;;25.83;11.27;;;;;;;10.58;100.00;102056.81;5071656;28;20079;-74
2022/04/15 02:58:37;;;;;;;24.65;11.52;;;;;;;10.56;100.00;102061.13;5068943;28;20152;-75
2022/04/15 03:01:04;;;;;;;20.60;11.13;;;;;;;10.54;100.00;102056.75;5069992;28;20136;-74
2022/04/15 03:03:31;;;;;;;26.35;10.38;;;;;;;10.54;100.00;102067.81;5065893;28;20056;-74
2022/04/15 03:05:57;;;;;;;20.83;10.60;;;;;;;10.52;100.00;102065.81;5069309;28;20044;-74
2022/04/15 03:08:24;;;;;;;22.65;10.80;;;;;;;10.47;100.00;102064.91;5069807;28;20076;-76
2022/04/15 03:10:50;;;;;;;23.10;10.85;;;;;;;10.44;100.00;102062.84;5067640;28;20052;-76
2022/04/15 03:13:16;;;;;;;22.60;11.50;;;;;;;10.41;100.00;102066.38;5065304;28;20131;-74
2022/04/15 03:15:43;;;;;;;22.58;11.68;;;;;;;10.40;100.00;102064.75;5066243;28;20047;-75
2022/04/15 03:18:10;;;;;;;22.75;11.77;;;;;;;10.38;100.00;102077.34;5069535;28;20052;-76
2022/04/15 03:20:37;;;;;;;22.15;10.63;;;;;;;10.38;100.00;102069.06;5069544;28;20052;-74
2022/04/15 03:23:03;;;;;;;20.73;10.23;;;;;;;10.38;100.00;102078.16;5065206;28;20055;-74
2022/04/15 03:25:31;;;;;;;25.05;11.45;;;;;;;10.35;100.00;102070.59;5065582;28;20041;-74
2022/04/15 03:27:58;;;;;;;23.63;11.63;;;;;;;10.35;100.00;102078.91;5064175;28;20074;-74
2022/04/15 03:30:25;;;;;;;24.73;11.70;;;;;;;10.30;100.00;102075.63;5069281;28;20058;-75
2022/04/15 03:32:52;;;;;;;26.13;11.32;;;;;;;10.23;100.00;102073.47;5059592;28;20061;-74
2022/04/15 03:35:21;;;;;;;27.92;11.73;;;;;;;10.23;100.00;102076.25;5064171;28;20131;-74
2022/04/15 03:37:49;;;;;;;25.77;11.10;;;;;;;10.17;100.00;102061.09;5069275;28;20405;-75
2022/04/15 03:40:17;;;;;;;23.45;11.13;;;;;;;10.21;100.00;102081.34;5066000;28;20048;-74
2022/04/15 03:42:47;;;;;;;24.48;10.25;;;;;;;10.19;100.00;102083.69;5067894;28;20076;-74
2022/04/15 03:45:19;;;;;;;23.02;10.38;;;;;;;10.19;100.00;102083.69;5065330;28;20832;-74
2022/04/15 03:47:46;;;;;;;22.92;10.90;;;;;;;10.11;100.00;102079.16;5068861;28;20056;-75
2022/04/15 03:50:13;;;;;;;19.27;10.38;;;;;;;10.08;100.00;102079.06;5054844;28;20142;-74
2022/04/15 03:52:44;;;;;;;22.48;11.02;;;;;;;10.02;100.00;102078.53;5068276;28;20167;-74
2022/04/15 03:55:18;;;;;;;22.88;10.98;;;;;;;9.98;100.00;102082.34;5057980;28;20045;-75
2022/04/15 03:57:45;;;;;;;21.95;10.65;;;;;;;9.93;100.00;102082.66;5070204;28;20067;-74
2022/04/15 04:00:14;;;;;;;22.23;10.35;;;;;;;9.87;100.00;102086.84;5071413;28;20142;-75
2022/04/15 04:02:44;;;;;;;20.08;9.90;;;;;;;9.85;100.00;102092.72;5069569;28;20139;-75
2022/04/15 04:05:12;;;;;;;24.40;10.65;;;;;;;9.82;100.00;102087.91;5065145;28;20040;-74
2022/04/15 04:07:40;;;;;;;22.33;10.43;;;;;;;9.83;100.00;102091.50;5072305;28;20071;-74
2022/04/15 04:10:07;;;;;;;22.85;11.45;;;;;;;9.80;100.00;102104.09;5060068;28;20076;-74
2022/04/15 04:12:34;;;;;;;20.65;10.48;;;;;;;9.76;100.00;102097.66;5068994;28;20071;-75
2022/04/15 04:15:02;;;;;;;23.77;11.10;;;;;;;9.73;100.00;102090.09;5062576;28;20098;-75
2022/04/15 04:17:28;;;;;;;24.30;10.75;;;;;;;9.76;100.00;102094.88;5067591;28;20127;-74
2022/04/15 04:19:55;;;;;;;25.00;11.35;;;;;;;9.71;100.00;102099.88;5065191;28;20049;-75
2022/04/15 04:22:29;;;;;;;25.20;11.23;;;;;;;9.68;100.00;102109.69;5064843;28;20418;-77
2022/04/15 04:24:56;;;;;;;27.15;12.93;;;;;;;9.71;100.00;102103.47;5066187;28;20052;-76
2022/04/15 04:27:23;;;;;;;22.65;11.52;;;;;;;9.76;100.00;102107.91;5067591;28;20056;-74
2022/04/15 04:29:50;;;;;;;30.60;14.10;;;;;;;9.81;100.00;102111.19;5057991;28;20141;-74
2022/04/15 04:32:18;;;;;;;30.92;13.05;;;;;;;9.90;100.00;102120.13;5051537;28;20163;-74
2022/04/15 04:34:45;;;;;;;27.80;13.48;;;;;;;9.97;100.00;102127.78;5067917;28;20048;-74
2022/04/15 04:37:12;;;;;;;35.65;14.52;;;;;;;10.05;100.00;102118.47;5060282;28;20136;-74
2022/04/15 04:39:39;;;;;;;26.80;12.27;;;;;;;10.10;100.00;102127.31;5062493;28;20051;-75
2022/04/15 04:42:07;;;;;;;30.60;13.70;;;;;;;10.19;100.00;102133.47;5073065;28;20045;-73
2022/04/15 04:44:35;;;;;;;28.33;13.43;;;;;;;10.23;100.00;102139.09;5067998;28;20408;-73
2022/04/15 04:47:02;;;;;;;33.28;14.98;;;;;;;10.24;100.00;102129.63;5066334;28;20040;-75
2022/04/15 04:49:28;;;;;;;27.70;14.90;;;;;;;10.31;100.00;102140.84;5066061;28;20176;-74
2022/04/15 04:51:55;;;;;;;30.35;14.32;;;;;;;10.37;100.00;102151.25;5064091;28;20537;-74
2022/04/15 04:54:22;;;;;;;26.42;12.20;;;;;;;10.39;100.00;102146.16;5065044;28;20052;-74
2022/04/15 04:56:49;;;;;;;34.17;12.65;;;;;;;10.40;100.00;102144.22;5069212;28;20045;-75
2022/04/15 04:59:15;;;;;;;35.40;15.02;;;;;;;10.39;100.00;102157.25;5068266;28;20054;-75
2022/04/15 05:01:42;;;;;;;30.65;12.73;;;;;;;10.38;100.00;102157.59;5065023;28;20075;-73
2022/04/15 05:04:08;;;;;;;31.25;13.63;;;;;;;10.43;100.00;102171.16;5066927;28;20475;-74
2022/04/15 05:06:35;;;;;;;35.72;15.55;;;;;;;10.48;100.00;102166.16;5068096;28;20048;-75
2022/04/15 05:09:02;;;;;;;33.95;14.82;;;;;;;10.52;100.00;102168.19;5066971;28;20127;-73
2022/04/15 05:11:28;;;;;;;33.28;15.98;;;;;;;10.61;100.00;102177.06;5065193;28;20110;-75
2022/04/15 05:13:55;;;;;;;28.35;14.43;;;;;;;10.56;100.00;102174.59;5067889;28;20056;-73
2022/04/15 05:16:21;;;;;;;26.88;14.05;;;;;;;10.64;100.00;102177.16;5066431;28;20059;-74
2022/04/15 05:18:48;;;;;;;31.58;13.95;;;;;;;10.70;100.00;102180.44;5068427;28;20051;-74
2022/04/15 05:21:14;;;;;;;30.33;14.25;;;;;;;10.72;100.00;102186.41;5065291;28;20124;-74
2022/04/15 05:23:41;;;;;;;27.63;12.82;;;;;;;10.76;100.00;102187.31;5067579;28;20052;-74
2022/04/15 05:26:07;;;;;;;27.35;12.30;;;;;;;10.79;100.00;102190.13;5066985;28;20037;-75
2022/04/15 05:28:36;;;;;;;29.30;14.52;;;;;;;10.84;100.00;102198.16;5067491;28;20060;-74
2022/04/15 05:31:05;;;;;;;29.75;14.07;;;;;;;10.84;100.00;102194.59;5063158;28;20535;-73
2022/04/15 05:33:32;;;;;;;29.55;13.65;;;;;;;10.84;100.00;102195.41;5066828;28;20075;-75
2022/04/15 05:35:58;;;;;;;29.00;14.48;;;;;;;10.90;100.00;102201.44;5067688;28;20079;-74
2022/04/15 05:38:28;;;;;;;27.77;13.38;;;;;;;10.88;100.00;102201.81;5071339;28;20135;-74
2022/04/15 05:40:54;;;;;;;28.48;13.02;;;;;;;10.92;100.00;102211.00;5059701;28;20053;-74
2022/04/15 05:43:21;;;;;;;26.30;13.00;;;;;;;10.98;100.00;102214.28;5071178;28;20052;-74
2022/04/15 05:45:47;;;;;;;28.25;13.00;;;;;;;10.99;100.00;102221.41;5071552;28;20059;-74
2022/04/15 05:48:17;;;;;;;26.80;11.48;;;;;;;11.00;100.00;102215.50;5070580;28;20062;-75
2022/04/15 05:50:43;;;;;;;23.77;12.13;;;;;;;11.02;100.00;102226.22;5070279;28;20076;-74
2022/04/15 05:53:13;;;;;;;24.48;10.50;;;;;;;11.04;100.00;102229.44;5067278;28;20189;-74
2022/04/15 05:55:40;;;;;;;25.27;10.52;;;;;;;11.03;100.00;102228.63;5071616;28;20136;-74
2022/04/15 05:58:09;;;;;;;28.88;11.90;;;;;;;11.10;100.00;102239.84;5071082;28;20040;-75
2022/04/15 06:00:38;;;;;;;24.05;11.48;;;;;;;11.15;100.00;102239.56;5069394;28;20070;-73
2022/04/15 06:03:07;;;;;;;21.30;9.82;;;;;;;11.14;100.00;102242.72;5068411;28;20047;-76
2022/04/15 06:05:37;;;;;;;21.88;8.90;;;;;;;11.18;100.00;102247.16;5070435;28;20052;-77
2022/04/15 06:08:04;;;;;;;18.83;8.27;;;;;;;11.21;100.00;102251.97;5071759;28;20159;-76
2022/04/15 06:10:31;;;;;;;17.92;7.70;;;;;;;11.21;100.00;102256.72;5068749;28;20053;-77
2022/04/15 06:13:06;;;;;;;22.70;8.68;;;;;;;11.26;100.00;102264.72;5067371;28;20524;-77
2022/04/15 06:15:34;;;;;;;22.95;9.60;;;;;;;11.25;100.00;102263.94;5054187;28;20068;-76
2022/04/15 06:18:02;;;;;;;19.92;9.68;;;;;;;11.30;100.00;102271.94;5069935;28;20052;-76
2022/04/15 06:20:29;;;;;;;19.20;8.88;;;;;;;11.29;100.00;102277.84;5072126;28;20102;-75
2022/04/15 06:22:57;;;;;;;18.70;8.55;;;;;;;11.26;100.00;102279.38;5075548;28;20047;-75
2022/04/15 06:25:23;;;;;;;22.30;8.98;;;;;;;11.22;100.00;102286.00;5070268;28;20131;-78
2022/04/15 06:27:51;;;;;;;18.92;8.50;;;;;;;11.19;100.00;102281.19;5076739;28;20059;-75
2022/04/15 06:30:21;;;;;;;15.75;7.38;;;;;;;11.19;100.00;102282.00;5071871;28;20410;-76
2022/04/15 06:32:48;;;;;;;20.48;8.10;;;;;;;11.17;100.00;102294.63;5061791;28;20057;-75
2022/04/15 06:35:15;;;;;;;16.30;8.05;;;;;;;11.22;100.00;102297.09;5058418;28;20083;-75
2022/04/15 06:37:41;;;;;;;14.48;6.43;;;;;;;11.26;100.00;102303.50;5070897;28;20056;-75
2022/04/15 06:40:08;;;;;;;15.57;5.72;;;;;;;11.25;100.00;102296.38;5072909;28;20512;-75
2022/04/15 06:42:35;;;;;;;12.05;4.60;;;;;;;11.25;100.00;102301.91;5068390;28;20103;-74
2022/04/15 06:45:02;;;;;;;14.20;4.90;;;;;;;11.34;100.00;102294.19;5065748;28;20045;-75
2022/04/15 06:47:28;;;;;;;13.65;4.45;;;;;;;11.34;100.00;102294.97;5050527;28;20135;-76
2022/04/15 06:49:55;;;;;;;10.38;4.88;;;;;;;11.42;100.00;102298.72;5063155;28;20045;-76
2022/04/15 06:52:22;;;;;;;11.88;4.60;;;;;;;11.50;100.00;102306.81;5061312;28;20144;-74
2022/04/15 06:54:49;;;;;;;12.75;4.53;;;;;;;11.55;100.00;102298.22;5068897;28;20068;-74
2022/04/15 06:57:16;;;;;;;10.07;4.30;;;;;;;11.62;99.53;102315.00;5061107;28;20079;-76
2022/04/15 06:59:42;;;;;;;11.80;5.03;;;;;;;11.70;98.83;102310.38;5069415;28;20058;-77
2022/04/15 07:02:09;;;;;;;10.25;4.28;;;;;;;11.68;97.18;102298.88;5073678;28;20136;-75
2022/04/15 07:04:35;;;;;;;9.88;4.70;;;;;;;11.60;97.38;102299.84;5063244;28;20054;-76
2022/04/15 07:07:02;;;;;;;10.43;4.78;;;;;;;11.69;97.30;102306.03;5064446;28;20055;-73
2022/04/15 07:09:29;;;;;;;11.38;4.90;;;;;;;11.76;97.64;102301.41;5071980;28;20152;-78
2022/04/15 07:11:56;;;;;;;11.98;4.78;;;;;;;11.89;95.56;102310.38;5065508;28;20543;-76
2022/04/15 07:14:23;;;;;;;14.23;4.97;;;;;;;11.94;93.57;102307.28;5065114;28;20123;-74
2022/04/15 07:16:50;;;;;;;9.18;4.40;;;;;;;12.00;93.12;102308.59;5063706;28;20048;-74
2022/04/15 07:19:17;;;;;;;13.13;5.10;;;;;;;11.98;92.67;102310.94;5065444;28;20194;-74
2022/04/15 07:21:43;;;;;;;14.00;5.00;;;;;;;12.02;92.62;102315.38;5070665;28;20049;-75
2022/04/15 07:24:12;;;;;;;9.52;4.35;;;;;;;11.93;92.21;102314.81;5066714;28;20147;-75
2022/04/15 07:26:40;;;;;;;9.30;4.22;;;;;;;11.96;92.86;102316.06;5069638;28;20140;-79
2022/04/15 07:29:07;;;;;;;11.10;4.65;;;;;;;12.02;93.20;102320.91;5062758;28;20076;-74
2022/04/15 07:31:34;;;;;;;12.13;4.72;;;;;;;12.04;93.33;102323.31;5068306;28;20045;-77
2022/04/15 07:34:01;;;;;;;9.45;4.00;;;;;;;12.19;93.37;102325.19;5062355;28;20083;-74
2022/04/15 07:39:03;;;;;;;10.15;4.50;;;;;;;12.30;92.11;102328.94;5066263;28;20079;-75
2022/04/15 07:41:30;;;;;;;11.13;4.75;;;;;;;12.36;92.44;102324.69;5061186;28;20048;-76
2022/04/15 07:43:56;;;;;;;10.85;5.07;;;;;;;12.42;92.26;102328.78;5064926;28;20123;-74
2022/04/15 07:46:23;;;;;;;11.55;4.95;;;;;;;12.44;92.71;102332.78;5068114;28;20161;-75
2022/04/15 07:48:49;;;;;;;13.48;5.45;;;;;;;12.45;92.06;102339.94;5062695;28;20045;-76
2022/04/15 07:51:16;;;;;;;17.67;5.82;;;;;;;12.40;91.39;102342.22;5061744;28;20148;-75
2022/04/15 07:53:42;;;;;;;12.73;5.72;;;;;;;12.31;91.93;102339.69;5067563;28;20052;-75
2022/04/15 07:56:09;;;;;;;14.57;6.03;;;;;;;12.28;92.16;102334.88;5053356;28;20087;-76
2022/04/15 07:58:35;;;;;;;17.35;6.00;;;;;;;12.32;92.89;102340.50;5066709;28;20048;-75
2022/04/15 08:01:02;;;;;;;14.65;6.38;;;;;;;12.28;92.95;102334.88;5067365;28;20139;-76
2022/04/15 08:03:29;;;;;;;14.48;6.22;;;;;;;12.24;93.03;102341.53;5062654;28;20717;-77
2022/04/15 08:05:55;;;;;;;15.05;5.63;;;;;;;12.17;92.99;102338.63;5068679;28;20094;-76
2022/04/15 08:08:22;;;;;;;16.70;5.97;;;;;;;12.07;93.54;102342.81;5069460;28;20115;-74
2022/04/15 08:10:50;;;;;;;13.52;6.30;;;;;;;12.11;94.18;102340.91;5069083;28;20127;-75
2022/04/15 08:13:18;;;;;;;16.05;6.57;;;;;;;12.13;94.93;102346.91;5071699;28;20058;-74
2022/04/15 08:15:44;;;;;;;15.73;6.53;;;;;;;12.10;94.89;102355.97;5080460;28;20565;-76
2022/04/15 08:18:11;;;;;;;17.30;6.63;;;;;;;12.07;95.05;102342.81;5055531;28;20071;-76
2022/04/15 08:20:38;;;;;;;18.55;7.65;;;;;;;12.07;95.58;102353.09;5068766;28;20580;-76
2022/04/15 08:23:04;;;;;;;15.98;6.65;;;;;;;12.00;95.30;102345.47;5064998;28;20139;-80
2022/04/15 08:25:31;;;;;;;15.65;6.75;;;;;;;12.03;95.88;102347.50;5065945;28;20539;-75
2022/04/15 08:27:57;;;;;;;17.08;7.53;;;;;;;12.01;96.21;102349.03;5061702;28;20754;-75
2022/04/15 08:30:24;;;;;;;15.80;7.47;;;;;;;11.98;95.91;102355.34;5057865;28;20048;-76
2022/04/15 08:32:56;;;;;;;22.85;7.30;;;;;;;11.97;96.61;102362.84;5060681;28;20053;-77
2022/04/15 08:35:22;;;;;;;15.00;7.28;;;;;;;11.95;97.12;102354.06;5070432;28;20135;-75
2022/04/15 08:37:49;;;;;;;18.35;6.80;;;;;;;11.89;96.70;102350.03;5083527;28;20799;-75
2022/04/15 08:40:16;;;;;;;16.33;6.85;;;;;;;12.04;96.71;102367.72;5058553;28;20132;-75
2022/04/15 08:42:43;;;;;;;17.55;6.78;;;;;;;12.03;95.85;102364.16;5073141;28;20140;-75
2022/04/15 08:45:13;;;;;;;14.68;6.35;;;;;;;12.03;96.08;102368.88;5057371;28;20076;-77
2022/04/15 08:47:40;;;;;;;15.63;7.05;;;;;;;12.06;95.92;102371.75;5052698;28;20513;-76
2022/04/15 08:50:10;;;;;;;12.73;5.93;;;;;;;12.11;94.93;102362.28;5052942;28;20131;-75
2022/04/15 08:52:37;;;;;;;16.45;6.63;;;;;;;12.16;94.60;102370.34;5062275;28;20505;-75
2022/04/15 08:55:04;;;;;;;20.05;6.38;;;;;;;12.15;94.45;102368.75;5048218;28;20128;-75
2022/04/15 08:57:32;;;;;;;16.23;7.38;;;;;;;12.14;94.97;102372.66;5071265;28;20127;-75
2022/04/15 08:59:59;;;;;;;14.52;6.55;;;;;;;12.16;94.49;102370.34;5068622;28;20053;-76
2022/04/15 09:02:33;;;;;;;19.85;6.45;;;;;;;12.18;94.66;102381.84;5071998;28;20052;-77
2022/04/15 09:05:00;;;;;;;17.08;6.22;;;;;;;12.15;94.83;102375.06;5062202;28;20084;-77
2022/04/15 09:07:31;;;;;;;16.25;7.32;;;;;;;12.15;95.17;102377.84;5071104;28;20041;-74
2022/04/15 09:10:05;;;;;;;16.25;6.93;;;;;;;12.14;95.40;102384.56;5056775;28;20049;-74
2022/04/15 09:12:35;;;;;;;17.58;6.63;;;;;;;12.17;95.29;102383.03;5073308;28;20143;-75
2022/04/15 09:15:05;;;;;;;17.48;6.38;;;;;;;12.17;95.07;102389.41;5084717;28;20061;-75
2022/04/15 09:17:49;;;;;;;17.67;7.28;;;;;;;12.24;95.22;102385.94;5084192;28;20517;-75
2022/04/15 09:20:17;;;;;;;18.85;8.45;;;;;;;12.23;94.91;102398.22;5052216;28;20057;-78
2022/04/15 09:22:43;;;;;;;15.65;6.70;;;;;;;12.24;94.13;102395.06;5061895;28;20058;-75
2022/04/15 09:25:10;;;;;;;17.30;6.55;;;;;;;12.36;94.49;102397.66;5068703;28;20071;-76
2022/04/15 09:27:38;;;;;;;16.25;6.70;;;;;;;12.33;93.72;102400.38;5070632;28;20060;-74
2022/04/15 09:30:06;;;;;;;17.08;7.38;;;;;;;12.31;93.75;102408.28;5067638;28;20125;-75
2022/04/15 09:32:32;;;;;;;15.35;6.05;;;;;;;12.34;93.93;102410.31;5053986;28;20167;-77
2022/04/15 09:35:07;;;;;;;17.95;6.38;;;;;;;12.40;93.53;102412.44;5064959;28;20129;-78
2022/04/15 09:37:40;;;;;;;17.67;5.57;;;;;;;12.41;93.19;102413.22;5066503;28;20047;-77
2022/04/15 09:40:17;;;;;;;15.23;6.50;;;;;;;12.42;92.75;102412.84;5090558;27;20500;-76
2022/04/15 09:42:50;;;;;;;17.60;7.18;;;;;;;12.50;93.21;102411.00;5065003;28;20111;-78
2022/04/15 09:45:36;;;;;;;12.40;5.40;;;;;;;12.53;92.11;102407.50;5069097;28;20162;-75
2022/04/15 09:48:08;;;;;;;14.73;5.60;;;;;;;12.56;90.77;102406.75;5068984;28;20066;-75
2022/04/15 09:50:44;;;;;;;17.23;6.10;;;;;;;12.64;90.40;102417.63;5062319;28;20061;-75
2022/04/15 09:53:12;;;;;;;9.68;4.55;;;;;;;12.72;90.72;102416.56;5075882;28;20052;-76
2022/04/15 09:55:44;;;;;;;12.55;4.88;;;;;;;12.72;88.41;102411.00;5083891;28;20045;-76
2022/04/15 09:58:15;;;;;;;15.45;5.57;;;;;;;12.81;88.18;102410.75;5066262;28;20131;-76
2022/04/15 10:00:47;;;;;;;12.65;5.07;;;;;;;12.87;88.20;102417.59;5071400;28;20618;-76
2022/04/15 10:03:19;;;;;;;12.57;4.80;;;;;;;12.82;87.70;102420.69;5067745;28;20045;-78
2022/04/15 10:05:46;;;;;;;10.93;4.95;;;;;;;12.90;88.33;102419.63;5069591;28;20160;-77
2022/04/15 10:08:14;;;;;;;11.38;5.50;;;;;;;12.94;87.75;102414.94;5069773;28;20048;-76
2022/04/15 10:10:41;;;;;;;13.50;5.88;;;;;;;12.96;87.11;102421.72;5048829;28;20151;-77
2022/04/15 10:13:08;;;;;;;11.38;5.00;;;;;;;12.95;86.38;102409.00;5050441;28;20068;-76
2022/04/15 10:15:38;;;;;;;13.30;5.57;;;;;;;12.97;86.68;102408.63;5075136;28;20265;-78
2022/04/15 10:18:05;;;;;;;11.63;5.22;;;;;;;12.99;86.97;102404.34;5052970;28;20048;-77
2022/04/15 10:20:32;;;;;;;10.57;4.53;;;;;;;13.14;86.50;102413.69;5053455;28;20053;-79
2022/04/15 10:23:04;;;;;;;12.73;4.15;;;;;;;13.14;85.07;102408.16;5050746;28;20045;-76
2022/04/15 10:25:33;;;;;;;12.23;4.15;;;;;;;13.18;83.90;102414.56;5062329;28;20381;-78
2022/04/15 10:28:16;;;;;;;7.65;3.22;;;;;;;13.21;82.68;102410.22;5071552;28;20048;-78
2022/04/15 10:31:11;;;;;;;13.30;4.75;;;;;;;13.25;83.25;102408.28;5068072;28;20139;-76
2022/04/15 10:33:39;;;;;;;12.18;4.38;;;;;;;13.19;82.89;102407.81;5060919;28;20044;-77
2022/04/15 10:36:14;;;;;;;12.45;4.50;;;;;;;13.17;83.10;102415.75;5064075;28;20063;-77
2022/04/15 10:39:03;;;;;;;9.45;4.40;;;;;;;13.23;84.08;102425.34;5065940;28;20492;-75
2022/04/15 10:42:01;;;;;;;10.23;4.75;;;;;;;13.28;84.16;102416.69;5064065;28;20046;-75
2022/04/15 10:44:29;;;;;;;13.32;5.07;;;;;;;13.38;83.89;102413.25;5065561;28;20154;-74
2022/04/15 10:47:03;;;;;;;9.73;4.32;;;;;;;13.42;83.49;102410.50;5069227;28;20036;-76
2022/04/15 10:49:30;;;;;;;11.32;4.97;;;;;;;13.42;82.89;102411.31;5062377;28;20499;-74
2022/04/15 10:51:59;;;;;;;12.75;5.28;;;;;;;13.43;82.70;102420.47;5064849;28;20040;-77
2022/04/15 10:54:29;;;;;;;10.73;5.30;;;;;;;13.42;82.54;102421.63;5064996;28;20051;-74
2022/04/15 10:56:59;;;;;;;14.18;5.97;;;;;;;13.44;83.38;102424.84;5067233;28;20636;-75
2022/04/15 11:02:18;;;;;;;11.88;4.95;;;;;;;13.54;83.08;102416.69;5063790;28;20488;-77
2022/04/15 11:04:52;;;;;;;12.05;4.85;;;;;;;13.54;82.85;102418.66;5055054;28;20060;-75
2022/04/15 11:07:27;;;;;;;13.77;5.30;;;;;;;13.57;82.67;102415.13;5067814;28;20038;-75
2022/04/15 11:09:55;;;;;;;11.27;4.50;;;;;;;13.59;81.59;102412.75;5063934;28;20443;-77
2022/04/15 11:12:33;;;;;;;15.80;5.75;;;;;;;13.63;81.39;102416.41;5064129;28;20048;-74
2022/04/15 11:15:00;;;;;;;11.95;5.32;;;;;;;13.68;80.89;102410.47;5062478;28;20048;-76
2022/04/15 11:17:37;;;;;;;13.48;5.75;;;;;;;13.66;81.13;102413.63;5066718;28;20059;-77
2022/04/15 11:20:08;;;;;;;12.60;5.60;;;;;;;13.71;81.19;102412.50;5076751;28;20155;-76